sensor_id;sensor_type;location;lat;lon;timestamp;temperature;humidity
26505;DHT22;19493;48.042;7.584;2022-09-27T00:00:42;10.70;99.90
26505;DHT22;19493;48.042;7.584;2022-09-27T00:03:09;10.60;99.90
26505;DHT22;19493;48.042;7.584;2022-09-27T00:05:38;10.60;99.90
26505;DHT22;19493;48.042;7.584;2022-09-27T00:08:04;10.60;99.90
26505;DHT22;19493;48.042;7.584;2022-09-27T00:10:31;10.60;99.90
26505;DHT22;19493;48.042;7.584;2022-09-27T00:12:57;10.60;99.90
26505;DHT22;19493;48.042;7.584;2022-09-27T00:15:22;10.60;99.90
26505;DHT22;19493;48.042;7.584;2022-09-27T00:17:48;10.60;99.90
26505;DHT22;19493;48.042;7.584;2022-09-27T00:20:18;10.60;99.90
26505;DHT22;19493;48.042;7.584;2022-09-27T00:22:45;10.60;99.90
26505;DHT22;19493;48.042;7.584;2022-09-27T00:25:11;10.60;99.90
26505;DHT22;19493;48.042;7.584;2022-09-27T00:27:36;10.60;99.90
26505;DHT22;19493;48.042;7.584;2022-09-27T00:30:02;10.60;99.90
26505;DHT22;19493;48.042;7.584;2022-09-27T00:32:27;10.50;99.90
26505;DHT22;19493;48.042;7.584;2022-09-27T00:34:53;10.50;99.90
26505;DHT22;19493;48.042;7.584;2022-09-27T00:37:19;10.60;99.90
26505;DHT22;19493;48.042;7.584;2022-09-27T00:39:45;10.60;99.90
26505;DHT22;19493;48.042;7.584;2022-09-27T00:42:11;10.60;99.90
26505;DHT22;19493;48.042;7.584;2022-09-27T00:47:24;10.70;99.90
26505;DHT22;19493;48.042;7.584;2022-09-27T00:50:06;10.70;99.90
26505;DHT22;19493;48.042;7.584;2022-09-27T00:52:44;10.70;99.90
26505;DHT22;19493;48.042;7.584;2022-09-27T00:55:19;10.70;99.90
26505;DHT22;19493;48.042;7.584;2022-09-27T00:57:47;10.70;99.90
26505;DHT22;19493;48.042;7.584;2022-09-27T01:00:14;10.70;99.90
26505;DHT22;19493;48.042;7.584;2022-09-27T01:02:44;10.70;99.90
26505;DHT22;19493;48.042;7.584;2022-09-27T01:05:13;10.70;99.90
26505;DHT22;19493;48.042;7.584;2022-09-27T01:07:39;10.70;99.90
26505;DHT22;19493;48.042;7.584;2022-09-27T01:10:06;10.70;99.90
26505;DHT22;19493;48.042;7.584;2022-09-27T01:13:22;10.70;99.90
26505;DHT22;19493;48.042;7.584;2022-09-27T01:18:26;10.70;99.90
26505;DHT22;19493;48.042;7.584;2022-09-27T01:21:43;10.70;99.90
26505;DHT22;19493;48.042;7.584;2022-09-27T01:32:26;10.80;99.90
26505;DHT22;19493;48.042;7.584;2022-09-27T01:35:15;10.80;99.90
26505;DHT22;19493;48.042;7.584;2022-09-27T01:38:12;10.80;99.90
26505;DHT22;19493;48.042;7.584;2022-09-27T01:46:09;10.60;99.90
26505;DHT22;19493;48.042;7.584;2022-09-27T01:48:41;10.60;99.90
26505;DHT22;19493;48.042;7.584;2022-09-27T01:51:24;10.50;99.90
26505;DHT22;19493;48.042;7.584;2022-09-27T01:53:54;10.50;99.90
26505;DHT22;19493;48.042;7.584;2022-09-27T01:56:33;10.50;99.90
26505;DHT22;19493;48.042;7.584;2022-09-27T01:59:08;10.40;99.90
26505;DHT22;19493;48.042;7.584;2022-09-27T02:01:36;10.40;99.90
26505;DHT22;19493;48.042;7.584;2022-09-27T02:04:04;10.30;99.90
26505;DHT22;19493;48.042;7.584;2022-09-27T02:06:38;10.30;99.90
26505;DHT22;19493;48.042;7.584;2022-09-27T02:09:10;10.20;99.90
26505;DHT22;19493;48.042;7.584;2022-09-27T02:11:39;10.20;99.90
26505;DHT22;19493;48.042;7.584;2022-09-27T02:25:13;10.20;99.90
26505;DHT22;19493;48.042;7.584;2022-09-27T02:28:22;10.20;99.90
26505;DHT22;19493;48.042;7.584;2022-09-27T02:30:50;10.20;99.90
26505;DHT22;19493;48.042;7.584;2022-09-27T02:33:28;10.20;99.90
26505;DHT22;19493;48.042;7.584;2022-09-27T02:35:54;10.20;99.90
26505;DHT22;19493;48.042;7.584;2022-09-27T02:38:20;10.20;99.90
26505;DHT22;19493;48.042;7.584;2022-09-27T02:40:46;10.20;99.90
26505;DHT22;19493;48.042;7.584;2022-09-27T02:43:14;10.20;99.90
26505;DHT22;19493;48.042;7.584;2022-09-27T03:05:27;10.00;99.90
26505;DHT22;19493;48.042;7.584;2022-09-27T03:07:53;10.00;99.90
26505;DHT22;19493;48.042;7.584;2022-09-27T03:10:21;10.00;99.90
26505;DHT22;19493;48.042;7.584;2022-09-27T03:12:48;10.00;99.90
26505;DHT22;19493;48.042;7.584;2022-09-27T03:15:14;9.90;99.90
26505;DHT22;19493;48.042;7.584;2022-09-27T03:17:40;10.00;99.90
26505;DHT22;19493;48.042;7.584;2022-09-27T03:20:06;10.00;99.90
26505;DHT22;19493;48.042;7.584;2022-09-27T03:22:32;10.00;99.90
26505;DHT22;19493;48.042;7.584;2022-09-27T03:24:58;10.10;99.90
26505;DHT22;19493;48.042;7.584;2022-09-27T03:27:24;10.10;99.90
26505;DHT22;19493;48.042;7.584;2022-09-27T03:29:49;10.10;99.90
26505;DHT22;19493;48.042;7.584;2022-09-27T03:32:15;10.10;99.90
26505;DHT22;19493;48.042;7.584;2022-09-27T03:34:40;10.20;99.90
26505;DHT22;19493;48.042;7.584;2022-09-27T03:37:06;10.20;99.90
26505;DHT22;19493;48.042;7.584;2022-09-27T03:39:32;10.20;99.90
26505;DHT22;19493;48.042;7.584;2022-09-27T03:41:58;10.20;99.90
26505;DHT22;19493;48.042;7.584;2022-09-27T03:44:24;10.30;99.90
26505;DHT22;19493;48.042;7.584;2022-09-27T03:46:50;10.20;99.90
26505;DHT22;19493;48.042;7.584;2022-09-27T03:49:15;10.20;99.90
26505;DHT22;19493;48.042;7.584;2022-09-27T03:51:41;10.20;99.90
26505;DHT22;19493;48.042;7.584;2022-09-27T03:54:07;10.20;99.90
26505;DHT22;19493;48.042;7.584;2022-09-27T03:56:33;10.20;99.90
26505;DHT22;19493;48.042;7.584;2022-09-27T03:58:59;10.20;99.90
26505;DHT22;19493;48.042;7.584;2022-09-27T04:01:25;10.20;99.90
26505;DHT22;19493;48.042;7.584;2022-09-27T04:03:52;10.10;99.90
26505;DHT22;19493;48.042;7.584;2022-09-27T04:06:18;10.10;99.90
26505;DHT22;19493;48.042;7.584;2022-09-27T04:08:44;10.10;99.90
26505;DHT22;19493;48.042;7.584;2022-09-27T04:11:10;10.00;99.90
26505;DHT22;19493;48.042;7.584;2022-09-27T04:13:36;10.00;99.90
26505;DHT22;19493;48.042;7.584;2022-09-27T04:16:02;10.00;99.90
26505;DHT22;19493;48.042;7.584;2022-09-27T04:18:27;9.90;99.90
26505;DHT22;19493;48.042;7.584;2022-09-27T04:20:53;9.90;99.90
26505;DHT22;19493;48.042;7.584;2022-09-27T04:23:19;9.90;99.90
26505;DHT22;19493;48.042;7.584;2022-09-27T04:25:45;9.90;99.90
26505;DHT22;19493;48.042;7.584;2022-09-27T04:28:11;9.90;99.90
26505;DHT22;19493;48.042;7.584;2022-09-27T04:30:37;10.00;99.90
26505;DHT22;19493;48.042;7.584;2022-09-27T04:33:02;10.00;99.90
26505;DHT22;19493;48.042;7.584;2022-09-27T04:35:28;10.00;99.90
26505;DHT22;19493;48.042;7.584;2022-09-27T04:38:12;10.10;99.90
26505;DHT22;19493;48.042;7.584;2022-09-27T04:40:38;10.10;99.90
26505;DHT22;19493;48.042;7.584;2022-09-27T04:43:04;10.10;99.90
26505;DHT22;19493;48.042;7.584;2022-09-27T04:45:30;10.00;99.90
26505;DHT22;19493;48.042;7.584;2022-09-27T04:47:55;10.10;99.90
26505;DHT22;19493;48.042;7.584;2022-09-27T04:50:21;10.10;99.90
26505;DHT22;19493;48.042;7.584;2022-09-27T04:52:51;10.10;99.90
26505;DHT22;19493;48.042;7.584;2022-09-27T04:55:19;10.00;99.90
26505;DHT22;19493;48.042;7.584;2022-09-27T04:57:45;10.10;99.90
26505;DHT22;19493;48.042;7.584;2022-09-27T05:00:11;10.10;99.90
26505;DHT22;19493;48.042;7.584;2022-09-27T05:02:38;10.10;99.90
26505;DHT22;19493;48.042;7.584;2022-09-27T05:05:03;10.10;99.90
26505;DHT22;19493;48.042;7.584;2022-09-27T05:07:33;10.10;99.90
26505;DHT22;19493;48.042;7.584;2022-09-27T05:09:59;10.10;99.90
26505;DHT22;19493;48.042;7.584;2022-09-27T05:12:24;10.10;99.90
26505;DHT22;19493;48.042;7.584;2022-09-27T05:14:54;10.10;99.90
26505;DHT22;19493;48.042;7.584;2022-09-27T05:17:19;10.20;99.90
26505;DHT22;19493;48.042;7.584;2022-09-27T05:19:47;10.20;99.90
26505;DHT22;19493;48.042;7.584;2022-09-27T05:22:13;10.30;99.90
26505;DHT22;19493;48.042;7.584;2022-09-27T05:24:39;10.30;99.90
26505;DHT22;19493;48.042;7.584;2022-09-27T05:27:06;10.40;99.90
26505;DHT22;19493;48.042;7.584;2022-09-27T05:29:32;10.40;99.90
26505;DHT22;19493;48.042;7.584;2022-09-27T05:31:59;10.40;99.90
26505;DHT22;19493;48.042;7.584;2022-09-27T05:34:25;10.40;99.90
26505;DHT22;19493;48.042;7.584;2022-09-27T05:36:51;10.30;99.90
26505;DHT22;19493;48.042;7.584;2022-09-27T05:39:17;10.30;99.90
26505;DHT22;19493;48.042;7.584;2022-09-27T05:41:44;10.30;99.90
26505;DHT22;19493;48.042;7.584;2022-09-27T05:44:09;10.30;99.90
26505;DHT22;19493;48.042;7.584;2022-09-27T05:46:35;10.30;99.90
26505;DHT22;19493;48.042;7.584;2022-09-27T05:49:03;10.30;99.90
26505;DHT22;19493;48.042;7.584;2022-09-27T05:51:29;10.30;99.90
26505;DHT22;19493;48.042;7.584;2022-09-27T05:53:54;10.30;99.90
26505;DHT22;19493;48.042;7.584;2022-09-27T05:56:20;10.30;99.90
26505;DHT22;19493;48.042;7.584;2022-09-27T05:58:46;10.30;99.90
26505;DHT22;19493;48.042;7.584;2022-09-27T06:01:11;10.30;99.90
26505;DHT22;19493;48.042;7.584;2022-09-27T06:03:37;10.20;99.90
26505;DHT22;19493;48.042;7.584;2022-09-27T06:06:05;10.20;99.90
26505;DHT22;19493;48.042;7.584;2022-09-27T06:08:35;10.20;99.90
26505;DHT22;19493;48.042;7.584;2022-09-27T06:11:06;10.20;99.90
26505;DHT22;19493;48.042;7.584;2022-09-27T06:13:32;10.20;99.90
26505;DHT22;19493;48.042;7.584;2022-09-27T06:15:58;10.10;99.90
26505;DHT22;19493;48.042;7.584;2022-09-27T06:18:24;10.10;99.90
26505;DHT22;19493;48.042;7.584;2022-09-27T06:20:50;10.10;99.90
26505;DHT22;19493;48.042;7.584;2022-09-27T06:23:20;10.10;99.90
26505;DHT22;19493;48.042;7.584;2022-09-27T06:25:51;10.10;99.90
26505;DHT22;19493;48.042;7.584;2022-09-27T06:28:17;10.00;99.90
26505;DHT22;19493;48.042;7.584;2022-09-27T06:30:45;10.10;99.90
26505;DHT22;19493;48.042;7.584;2022-09-27T06:33:12;10.20;99.90
26505;DHT22;19493;48.042;7.584;2022-09-27T06:35:39;10.20;99.90
26505;DHT22;19493;48.042;7.584;2022-09-27T06:38:06;10.30;99.90
26505;DHT22;19493;48.042;7.584;2022-09-27T06:40:35;10.50;99.90
26505;DHT22;19493;48.042;7.584;2022-09-27T06:43:12;10.60;99.90
26505;DHT22;19493;48.042;7.584;2022-09-27T06:45:38;10.80;99.90
26505;DHT22;19493;48.042;7.584;2022-09-27T06:48:06;10.90;99.90
26505;DHT22;19493;48.042;7.584;2022-09-27T06:50:39;10.90;99.90
26505;DHT22;19493;48.042;7.584;2022-09-27T06:53:07;11.10;99.90
26505;DHT22;19493;48.042;7.584;2022-09-27T06:55:35;11.20;99.90
26505;DHT22;19493;48.042;7.584;2022-09-27T06:58:01;11.40;99.90
26505;DHT22;19493;48.042;7.584;2022-09-27T07:00:49;11.60;99.90
26505;DHT22;19493;48.042;7.584;2022-09-27T07:03:15;11.50;99.90
26505;DHT22;19493;48.042;7.584;2022-09-27T07:05:41;11.40;99.90
26505;DHT22;19493;48.042;7.584;2022-09-27T07:08:09;11.30;99.90
26505;DHT22;19493;48.042;7.584;2022-09-27T07:10:37;11.30;99.90
26505;DHT22;19493;48.042;7.584;2022-09-27T07:13:05;11.30;99.90
26505;DHT22;19493;48.042;7.584;2022-09-27T07:15:32;11.30;99.90
26505;DHT22;19493;48.042;7.584;2022-09-27T07:18:00;11.30;99.90
26505;DHT22;19493;48.042;7.584;2022-09-27T07:20:26;11.30;99.90
26505;DHT22;19493;48.042;7.584;2022-09-27T07:22:54;11.30;99.90
26505;DHT22;19493;48.042;7.584;2022-09-27T07:25:19;11.30;99.90
26505;DHT22;19493;48.042;7.584;2022-09-27T07:27:45;11.30;99.90
26505;DHT22;19493;48.042;7.584;2022-09-27T07:30:12;11.30;99.90
26505;DHT22;19493;48.042;7.584;2022-09-27T07:32:38;11.30;99.90
26505;DHT22;19493;48.042;7.584;2022-09-27T07:35:04;11.40;99.90
26505;DHT22;19493;48.042;7.584;2022-09-27T07:37:35;11.50;99.90
26505;DHT22;19493;48.042;7.584;2022-09-27T07:40:03;11.60;99.90
26505;DHT22;19493;48.042;7.584;2022-09-27T07:42:31;11.70;99.90
26505;DHT22;19493;48.042;7.584;2022-09-27T07:44:57;11.80;99.90
26505;DHT22;19493;48.042;7.584;2022-09-27T07:47:24;11.80;99.90
26505;DHT22;19493;48.042;7.584;2022-09-27T07:49:50;11.80;99.90
26505;DHT22;19493;48.042;7.584;2022-09-27T07:52:17;11.80;99.90
26505;DHT22;19493;48.042;7.584;2022-09-27T07:54:44;11.80;99.90
26505;DHT22;19493;48.042;7.584;2022-09-27T07:57:09;11.80;99.90
26505;DHT22;19493;48.042;7.584;2022-09-27T07:59:35;11.80;99.90
26505;DHT22;19493;48.042;7.584;2022-09-27T08:02:01;11.70;99.90
26505;DHT22;19493;48.042;7.584;2022-09-27T08:04:27;11.70;99.90
26505;DHT22;19493;48.042;7.584;2022-09-27T08:06:53;11.60;99.90
26505;DHT22;19493;48.042;7.584;2022-09-27T08:09:19;11.50;99.90
26505;DHT22;19493;48.042;7.584;2022-09-27T08:11:44;11.30;99.90
26505;DHT22;19493;48.042;7.584;2022-09-27T08:14:10;11.20;99.90
26505;DHT22;19493;48.042;7.584;2022-09-27T08:16:35;11.20;99.90
26505;DHT22;19493;48.042;7.584;2022-09-27T08:19:01;11.20;99.90
26505;DHT22;19493;48.042;7.584;2022-09-27T08:21:27;11.10;99.90
26505;DHT22;19493;48.042;7.584;2022-09-27T08:23:52;11.00;99.90
26505;DHT22;19493;48.042;7.584;2022-09-27T08:26:18;10.90;99.90
26505;DHT22;19493;48.042;7.584;2022-09-27T08:28:46;10.80;99.90
26505;DHT22;19493;48.042;7.584;2022-09-27T08:31:12;10.80;99.90
26505;DHT22;19493;48.042;7.584;2022-09-27T08:33:37;10.90;99.90
26505;DHT22;19493;48.042;7.584;2022-09-27T08:36:03;10.90;99.90
26505;DHT22;19493;48.042;7.584;2022-09-27T08:38:34;11.00;99.90
26505;DHT22;19493;48.042;7.584;2022-09-27T08:51:49;11.30;99.90
26505;DHT22;19493;48.042;7.584;2022-09-27T08:54:23;11.40;99.90
26505;DHT22;19493;48.042;7.584;2022-09-27T08:56:52;11.40;99.90
26505;DHT22;19493;48.042;7.584;2022-09-27T08:59:19;11.40;99.90
26505;DHT22;19493;48.042;7.584;2022-09-27T09:01:49;11.40;99.90
26505;DHT22;19493;48.042;7.584;2022-09-27T09:04:27;11.40;99.90
26505;DHT22;19493;48.042;7.584;2022-09-27T09:10:05;11.20;99.90
26505;DHT22;19493;48.042;7.584;2022-09-27T09:12:47;11.10;99.90
26505;DHT22;19493;48.042;7.584;2022-09-27T09:27:03;12.60;99.90
26505;DHT22;19493;48.042;7.584;2022-09-27T09:35:00;20.00;99.90
26505;DHT22;19493;48.042;7.584;2022-09-27T09:37:33;19.70;99.90
26505;DHT22;19493;48.042;7.584;2022-09-27T09:40:07;18.50;99.90
26505;DHT22;19493;48.042;7.584;2022-09-27T09:42:45;19.60;99.90
26505;DHT22;19493;48.042;7.584;2022-09-27T09:45:18;18.90;99.90
26505;DHT22;19493;48.042;7.584;2022-09-27T09:50:22;16.50;99.90
26505;DHT22;19493;48.042;7.584;2022-09-27T09:52:56;16.00;99.90
26505;DHT22;19493;48.042;7.584;2022-09-27T09:55:28;16.10;99.90
26505;DHT22;19493;48.042;7.584;2022-09-27T10:00:27;16.40;99.90
26505;DHT22;19493;48.042;7.584;2022-09-27T10:02:56;15.80;99.90
26505;DHT22;19493;48.042;7.584;2022-09-27T10:05:24;14.80;99.90
26505;DHT22;19493;48.042;7.584;2022-09-27T10:07:52;14.30;99.90
26505;DHT22;19493;48.042;7.584;2022-09-27T10:10:19;14.30;99.90
26505;DHT22;19493;48.042;7.584;2022-09-27T10:12:46;14.40;99.90
26505;DHT22;19493;48.042;7.584;2022-09-27T10:15:18;14.50;99.90
26505;DHT22;19493;48.042;7.584;2022-09-27T10:17:47;14.50;99.90
26505;DHT22;19493;48.042;7.584;2022-09-27T10:20:41;14.40;99.90
26505;DHT22;19493;48.042;7.584;2022-09-27T10:23:16;14.50;99.90
26505;DHT22;19493;48.042;7.584;2022-09-27T10:25:56;14.80;99.90
26505;DHT22;19493;48.042;7.584;2022-09-27T10:28:32;15.10;99.90
26505;DHT22;19493;48.042;7.584;2022-09-27T10:31:06;15.50;99.90
26505;DHT22;19493;48.042;7.584;2022-09-27T10:33:34;16.30;99.90
26505;DHT22;19493;48.042;7.584;2022-09-27T10:36:01;16.50;99.90
26505;DHT22;19493;48.042;7.584;2022-09-27T10:40:57;15.60;99.90
26505;DHT22;19493;48.042;7.584;2022-09-27T10:43:34;15.20;99.90
26505;DHT22;19493;48.042;7.584;2022-09-27T10:48:44;14.50;99.90
26505;DHT22;19493;48.042;7.584;2022-09-27T10:51:27;14.50;99.90
26505;DHT22;19493;48.042;7.584;2022-09-27T10:53:54;14.20;99.90
26505;DHT22;19493;48.042;7.584;2022-09-27T10:56:34;14.10;99.90
26505;DHT22;19493;48.042;7.584;2022-09-27T10:59:01;14.10;99.90
26505;DHT22;19493;48.042;7.584;2022-09-27T11:01:40;14.00;99.90
26505;DHT22;19493;48.042;7.584;2022-09-27T11:04:14;14.00;99.90
26505;DHT22;19493;48.042;7.584;2022-09-27T11:06:41;14.00;99.90
26505;DHT22;19493;48.042;7.584;2022-09-27T11:09:21;13.90;99.90
26505;DHT22;19493;48.042;7.584;2022-09-27T11:12:13;13.90;99.90
26505;DHT22;19493;48.042;7.584;2022-09-27T11:14:39;13.70;99.90
26505;DHT22;19493;48.042;7.584;2022-09-27T11:17:18;13.60;99.90
26505;DHT22;19493;48.042;7.584;2022-09-27T11:20:14;13.70;99.90
26505;DHT22;19493;48.042;7.584;2022-09-27T11:34:58;13.50;99.90
26505;DHT22;19493;48.042;7.584;2022-09-27T11:46:29;12.00;99.90
26505;DHT22;19493;48.042;7.584;2022-09-27T11:52:05;11.70;99.90
26505;DHT22;19493;48.042;7.584;2022-09-27T11:55:00;11.90;99.90
26505;DHT22;19493;48.042;7.584;2022-09-27T11:57:42;13.00;99.90
26505;DHT22;19493;48.042;7.584;2022-09-27T12:00:21;14.70;99.90
26505;DHT22;19493;48.042;7.584;2022-09-27T12:16:18;19.20;99.90
26505;DHT22;19493;48.042;7.584;2022-09-27T12:18:45;17.80;99.90
26505;DHT22;19493;48.042;7.584;2022-09-27T12:21:12;16.90;99.90
26505;DHT22;19493;48.042;7.584;2022-09-27T12:23:41;16.10;99.90
26505;DHT22;19493;48.042;7.584;2022-09-27T12:26:18;15.60;99.90
26505;DHT22;19493;48.042;7.584;2022-09-27T12:31:58;15.00;99.90
26505;DHT22;19493;48.042;7.584;2022-09-27T12:34:44;14.80;99.90
26505;DHT22;19493;48.042;7.584;2022-09-27T12:37:18;14.50;99.90
26505;DHT22;19493;48.042;7.584;2022-09-27T12:39:55;14.40;99.90
26505;DHT22;19493;48.042;7.584;2022-09-27T12:45:12;13.70;99.90
26505;DHT22;19493;48.042;7.584;2022-09-27T12:48:23;13.10;99.90
26505;DHT22;19493;48.042;7.584;2022-09-27T12:51:00;12.50;99.90
26505;DHT22;19493;48.042;7.584;2022-09-27T12:53:57;12.40;99.90
26505;DHT22;19493;48.042;7.584;2022-09-27T13:07:58;12.00;99.90
26505;DHT22;19493;48.042;7.584;2022-09-27T13:10:38;12.30;99.90
26505;DHT22;19493;48.042;7.584;2022-09-27T13:13:10;12.70;99.90
26505;DHT22;19493;48.042;7.584;2022-09-27T13:15:37;12.70;99.90
26505;DHT22;19493;48.042;7.584;2022-09-27T13:18:16;12.60;99.90
26505;DHT22;19493;48.042;7.584;2022-09-27T13:20:51;12.60;99.90
26505;DHT22;19493;48.042;7.584;2022-09-27T13:25:51;12.50;99.90
26505;DHT22;19493;48.042;7.584;2022-09-27T13:31:02;12.30;99.90
26505;DHT22;19493;48.042;7.584;2022-09-27T13:33:46;12.30;99.90
26505;DHT22;19493;48.042;7.584;2022-09-27T13:36:29;12.20;99.90
26505;DHT22;19493;48.042;7.584;2022-09-27T13:41:30;12.50;99.90
26505;DHT22;19493;48.042;7.584;2022-09-27T13:46:31;13.10;99.90
26505;DHT22;19493;48.042;7.584;2022-09-27T13:49:16;13.30;99.90
26505;DHT22;19493;48.042;7.584;2022-09-27T13:51:54;13.30;99.90
26505;DHT22;19493;48.042;7.584;2022-09-27T13:56:59;13.60;99.90
26505;DHT22;19493;48.042;7.584;2022-09-27T13:59:39;13.80;99.90
26505;DHT22;19493;48.042;7.584;2022-09-27T14:04:46;13.80;99.90
26505;DHT22;19493;48.042;7.584;2022-09-27T14:07:17;13.60;99.90
26505;DHT22;19493;48.042;7.584;2022-09-27T14:09:45;13.50;99.90
26505;DHT22;19493;48.042;7.584;2022-09-27T14:12:18;13.70;99.90
26505;DHT22;19493;48.042;7.584;2022-09-27T14:14:45;13.90;99.90
26505;DHT22;19493;48.042;7.584;2022-09-27T14:17:12;14.50;99.90
26505;DHT22;19493;48.042;7.584;2022-09-27T14:19:39;17.50;99.90
26505;DHT22;19493;48.042;7.584;2022-09-27T14:22:14;18.10;99.90
26505;DHT22;19493;48.042;7.584;2022-09-27T14:27:54;16.30;99.90
26505;DHT22;19493;48.042;7.584;2022-09-27T14:30:22;15.50;99.90
26505;DHT22;19493;48.042;7.584;2022-09-27T14:32:53;15.90;99.90
26505;DHT22;19493;48.042;7.584;2022-09-27T14:35:30;15.50;99.90
26505;DHT22;19493;48.042;7.584;2022-09-27T14:38:18;15.10;99.90
26505;DHT22;19493;48.042;7.584;2022-09-27T14:43:20;15.40;99.90
26505;DHT22;19493;48.042;7.584;2022-09-27T14:45:49;15.30;99.90
26505;DHT22;19493;48.042;7.584;2022-09-27T14:48:29;15.20;99.90
26505;DHT22;19493;48.042;7.584;2022-09-27T14:53:31;14.60;99.90
26505;DHT22;19493;48.042;7.584;2022-09-27T14:55:58;14.20;99.90
26505;DHT22;19493;48.042;7.584;2022-09-27T14:58:25;13.90;99.90
26505;DHT22;19493;48.042;7.584;2022-09-27T15:00:52;13.90;99.90
26505;DHT22;19493;48.042;7.584;2022-09-27T15:03:35;15.90;99.90
26505;DHT22;19493;48.042;7.584;2022-09-27T15:06:04;18.40;99.90
26505;DHT22;19493;48.042;7.584;2022-09-27T15:08:30;20.60;99.90
26505;DHT22;19493;48.042;7.584;2022-09-27T15:11:03;22.00;94.00
26505;DHT22;19493;48.042;7.584;2022-09-27T15:13:31;22.60;87.70
26505;DHT22;19493;48.042;7.584;2022-09-27T15:15:57;22.20;85.20
26505;DHT22;19493;48.042;7.584;2022-09-27T15:18:39;20.80;88.40
26505;DHT22;19493;48.042;7.584;2022-09-27T15:23:50;17.60;99.90
26505;DHT22;19493;48.042;7.584;2022-09-27T15:26:21;16.10;99.90
26505;DHT22;19493;48.042;7.584;2022-09-27T15:28:50;15.10;99.90
26505;DHT22;19493;48.042;7.584;2022-09-27T15:31:17;14.60;99.90
26505;DHT22;19493;48.042;7.584;2022-09-27T15:33:54;14.40;99.90
26505;DHT22;19493;48.042;7.584;2022-09-27T15:39:26;13.80;99.90
26505;DHT22;19493;48.042;7.584;2022-09-27T15:44:42;13.40;99.90
26505;DHT22;19493;48.042;7.584;2022-09-27T15:52:51;13.10;99.90
26505;DHT22;19493;48.042;7.584;2022-09-27T15:55:22;13.10;99.90
26505;DHT22;19493;48.042;7.584;2022-09-27T16:00:50;12.90;99.90
26505;DHT22;19493;48.042;7.584;2022-09-27T16:03:16;12.90;99.90
26505;DHT22;19493;48.042;7.584;2022-09-27T16:05:41;12.90;99.90
26505;DHT22;19493;48.042;7.584;2022-09-27T16:08:11;12.90;99.90
26505;DHT22;19493;48.042;7.584;2022-09-27T16:10:38;12.90;99.90
26505;DHT22;19493;48.042;7.584;2022-09-27T16:13:06;12.90;99.90
26505;DHT22;19493;48.042;7.584;2022-09-27T16:15:31;12.90;99.90
26505;DHT22;19493;48.042;7.584;2022-09-27T16:17:57;12.90;99.90
26505;DHT22;19493;48.042;7.584;2022-09-27T16:20:25;12.90;99.90
26505;DHT22;19493;48.042;7.584;2022-09-27T16:22:55;12.90;99.90
26505;DHT22;19493;48.042;7.584;2022-09-27T16:25:21;12.80;99.90
26505;DHT22;19493;48.042;7.584;2022-09-27T16:27:48;12.80;99.90
26505;DHT22;19493;48.042;7.584;2022-09-27T16:30:14;12.70;99.90
26505;DHT22;19493;48.042;7.584;2022-09-27T16:32:42;12.70;99.90
26505;DHT22;19493;48.042;7.584;2022-09-27T16:35:09;12.70;99.90
26505;DHT22;19493;48.042;7.584;2022-09-27T16:37:35;12.60;99.90
26505;DHT22;19493;48.042;7.584;2022-09-27T16:40:02;12.60;99.90
26505;DHT22;19493;48.042;7.584;2022-09-27T16:42:28;12.40;99.90
26505;DHT22;19493;48.042;7.584;2022-09-27T16:44:54;12.30;99.90
26505;DHT22;19493;48.042;7.584;2022-09-27T16:47:20;12.40;99.90
26505;DHT22;19493;48.042;7.584;2022-09-27T16:49:46;12.30;99.90
26505;DHT22;19493;48.042;7.584;2022-09-27T16:52:30;12.30;99.90
26505;DHT22;19493;48.042;7.584;2022-09-27T16:54:59;12.30;99.90
26505;DHT22;19493;48.042;7.584;2022-09-27T16:57:26;12.20;99.90
26505;DHT22;19493;48.042;7.584;2022-09-27T16:59:54;12.20;99.90
26505;DHT22;19493;48.042;7.584;2022-09-27T17:02:23;12.10;99.90
26505;DHT22;19493;48.042;7.584;2022-09-27T17:04:50;12.10;99.90
26505;DHT22;19493;48.042;7.584;2022-09-27T17:07:16;12.10;99.90
26505;DHT22;19493;48.042;7.584;2022-09-27T17:09:41;12.00;99.90
26505;DHT22;19493;48.042;7.584;2022-09-27T17:12:07;11.90;99.90
26505;DHT22;19493;48.042;7.584;2022-09-27T17:14:32;11.90;99.90
26505;DHT22;19493;48.042;7.584;2022-09-27T17:16:58;11.90;99.90
26505;DHT22;19493;48.042;7.584;2022-09-27T17:19:24;11.80;99.90
26505;DHT22;19493;48.042;7.584;2022-09-27T17:21:50;11.80;99.90
26505;DHT22;19493;48.042;7.584;2022-09-27T17:24:16;11.80;99.90
26505;DHT22;19493;48.042;7.584;2022-09-27T17:26:42;11.70;99.90
26505;DHT22;19493;48.042;7.584;2022-09-27T17:29:11;11.70;99.90
26505;DHT22;19493;48.042;7.584;2022-09-27T17:31:38;11.70;99.90
26505;DHT22;19493;48.042;7.584;2022-09-27T17:34:05;11.70;99.90
26505;DHT22;19493;48.042;7.584;2022-09-27T17:36:32;11.60;99.90
26505;DHT22;19493;48.042;7.584;2022-09-27T17:39:00;11.60;99.90
26505;DHT22;19493;48.042;7.584;2022-09-27T17:41:27;11.60;99.90
26505;DHT22;19493;48.042;7.584;2022-09-27T17:43:57;11.60;99.90
26505;DHT22;19493;48.042;7.584;2022-09-27T17:46:25;11.50;99.90
26505;DHT22;19493;48.042;7.584;2022-09-27T17:48:51;11.50;99.90
26505;DHT22;19493;48.042;7.584;2022-09-27T17:51:38;11.50;99.90
26505;DHT22;19493;48.042;7.584;2022-09-27T17:54:04;11.50;99.90
26505;DHT22;19493;48.042;7.584;2022-09-27T17:56:35;11.50;99.90
26505;DHT22;19493;48.042;7.584;2022-09-27T17:59:01;11.50;99.90
26505;DHT22;19493;48.042;7.584;2022-09-27T18:01:27;11.50;99.90
26505;DHT22;19493;48.042;7.584;2022-09-27T18:03:54;11.50;99.90
26505;DHT22;19493;48.042;7.584;2022-09-27T18:06:21;11.40;99.90
26505;DHT22;19493;48.042;7.584;2022-09-27T18:08:47;11.40;99.90
26505;DHT22;19493;48.042;7.584;2022-09-27T18:11:15;11.40;99.90
26505;DHT22;19493;48.042;7.584;2022-09-27T18:13:42;11.30;99.90
26505;DHT22;19493;48.042;7.584;2022-09-27T18:16:16;11.30;99.90
26505;DHT22;19493;48.042;7.584;2022-09-27T18:18:43;11.30;99.90
26505;DHT22;19493;48.042;7.584;2022-09-27T18:21:10;11.20;99.90
26505;DHT22;19493;48.042;7.584;2022-09-27T18:23:39;11.20;99.90
26505;DHT22;19493;48.042;7.584;2022-09-27T18:26:05;11.20;99.90
26505;DHT22;19493;48.042;7.584;2022-09-27T18:28:35;11.20;99.90
26505;DHT22;19493;48.042;7.584;2022-09-27T18:31:04;11.20;99.90
26505;DHT22;19493;48.042;7.584;2022-09-27T18:33:32;11.10;99.90
26505;DHT22;19493;48.042;7.584;2022-09-27T18:36:02;11.10;99.90
26505;DHT22;19493;48.042;7.584;2022-09-27T18:38:28;11.10;99.90
26505;DHT22;19493;48.042;7.584;2022-09-27T18:40:53;11.10;99.90
26505;DHT22;19493;48.042;7.584;2022-09-27T18:43:22;11.10;99.90
26505;DHT22;19493;48.042;7.584;2022-09-27T18:45:49;11.00;99.90
26505;DHT22;19493;48.042;7.584;2022-09-27T18:48:15;11.00;99.90
26505;DHT22;19493;48.042;7.584;2022-09-27T18:50:40;11.00;99.90
26505;DHT22;19493;48.042;7.584;2022-09-27T18:53:06;11.00;99.90